createdAt,value
2023-04-29T00:01:25.027Z,93.68
2023-04-29T00:03:53.628Z,93.29
2023-04-29T00:06:22.580Z,92.91
2023-04-29T00:08:52.126Z,92.57
2023-04-29T00:11:20.606Z,92.60
2023-04-29T00:13:50.277Z,92.33
2023-04-29T00:16:18.683Z,92.55
2023-04-29T00:18:47.263Z,92.93
2023-04-29T00:21:15.880Z,93.29
2023-04-29T00:23:44.307Z,92.47
2023-04-29T00:26:12.584Z,93.22
2023-04-29T00:28:45.269Z,93.73
2023-04-29T00:31:15.256Z,93.55
2023-04-29T00:33:43.721Z,93.45
2023-04-29T00:36:11.990Z,92.92
2023-04-29T00:38:40.450Z,92.67
2023-04-29T00:41:09.084Z,92.18
2023-04-29T00:43:37.366Z,93.01
2023-04-29T00:46:05.767Z,92.22
2023-04-29T00:48:36.318Z,92.08
2023-04-29T00:51:06.967Z,91.76
2023-04-29T00:53:35.676Z,91.16
2023-04-29T00:56:04.684Z,90.83
2023-04-29T00:58:35.454Z,90.61
2023-04-29T01:01:04.452Z,90.86
2023-04-29T01:03:33.519Z,91.13
2023-04-29T01:06:15.911Z,91.23
2023-04-29T01:08:56.643Z,91.23
2023-04-29T01:11:26.055Z,91.87
2023-04-29T01:14:01.973Z,91.29
2023-04-29T01:16:38.635Z,91.63
2023-04-29T01:19:21.508Z,92.60
2023-04-29T01:21:51.322Z,92.03
2023-04-29T01:24:21.073Z,91.17
2023-04-29T01:26:58.456Z,91.07
2023-04-29T01:29:53.065Z,91.22
2023-04-29T01:32:35.255Z,90.90
2023-04-29T01:35:16.453Z,90.26
2023-04-29T01:37:53.844Z,90.12
2023-04-29T01:40:33.366Z,89.89
2023-04-29T01:43:13.970Z,89.67
2023-04-29T01:45:46.430Z,88.92
2023-04-29T01:48:17.512Z,89.14
2023-04-29T01:50:46.403Z,89.03
2023-04-29T01:53:17.059Z,88.62
2023-04-29T01:55:48.014Z,89.36
2023-04-29T01:58:19.594Z,88.68
2023-04-29T02:01:04.004Z,88.73
2023-04-29T02:03:34.603Z,88.95
2023-04-29T02:06:04.397Z,88.92
2023-04-29T02:08:32.907Z,88.37
2023-04-29T02:11:03.853Z,87.83
2023-04-29T02:13:42.922Z,87.77
2023-04-29T02:16:15.101Z,87.24
2023-04-29T02:18:48.320Z,87.38
2023-04-29T02:21:16.717Z,88.39
2023-04-29T02:23:45.039Z,88.54
2023-04-29T02:26:15.537Z,88.47
2023-04-29T02:28:44.291Z,88.52
2023-04-29T02:31:12.568Z,88.36
2023-04-29T02:33:41.427Z,88.02
2023-04-29T02:36:10.998Z,87.99
2023-04-29T02:38:39.422Z,87.69
2023-04-29T02:41:08.157Z,87.51
2023-04-29T02:43:38.078Z,87.38
2023-04-29T02:46:06.691Z,87.31
2023-04-29T02:48:35.352Z,87.02
2023-04-29T02:51:03.625Z,86.96
2023-04-29T02:53:31.984Z,87.20
2023-04-29T02:56:00.506Z,87.08
2023-04-29T02:58:28.873Z,87.05
2023-04-29T03:00:58.622Z,86.22
2023-04-29T03:03:27.167Z,85.50
2023-04-29T03:05:55.719Z,84.91
2023-04-29T03:08:24.266Z,84.15
2023-04-29T03:10:52.656Z,83.96
2023-04-29T03:13:21.149Z,83.95
2023-04-29T03:15:49.800Z,83.58
2023-04-29T03:18:19.772Z,83.52
2023-04-29T03:20:49.531Z,83.40
2023-04-29T03:23:17.894Z,83.24
2023-04-29T03:25:46.726Z,83.75
2023-04-29T03:28:15.168Z,84.68
2023-04-29T03:30:43.478Z,84.45
2023-04-29T03:33:11.842Z,83.88
2023-04-29T03:35:41.961Z,83.62
2023-04-29T03:38:19.557Z,83.75
2023-04-29T03:40:49.925Z,83.21
2023-04-29T03:43:19.579Z,83.25
2023-04-29T03:45:48.430Z,83.40
2023-04-29T03:48:20.147Z,83.14
2023-04-29T03:50:50.038Z,82.82
2023-04-29T03:53:18.970Z,82.56
2023-04-29T03:55:48.542Z,82.56
2023-04-29T03:58:17.838Z,82.25
2023-04-29T04:00:46.645Z,81.97
2023-04-29T04:03:20.851Z,81.74
2023-04-29T04:05:51.023Z,82.19
2023-04-29T04:08:19.463Z,81.77
2023-04-29T04:11:02.911Z,81.63
2023-04-29T04:13:36.463Z,81.61
2023-04-29T04:16:06.117Z,81.53
2023-04-29T04:18:34.555Z,81.35
2023-04-29T04:21:08.921Z,81.24
2023-04-29T04:23:40.632Z,81.07
2023-04-29T04:26:10.830Z,81.20
2023-04-29T04:28:54.105Z,81.28
2023-04-29T04:31:45.495Z,81.60
2023-04-29T04:34:15.697Z,81.71
2023-04-29T04:36:47.545Z,81.81
2023-04-29T04:39:16.021Z,81.58
2023-04-29T04:41:44.514Z,81.79
2023-04-29T04:44:13.344Z,81.71
2023-04-29T04:46:50.575Z,81.81
2023-04-29T04:49:31.608Z,81.85
2023-04-29T04:52:01.959Z,82.54
2023-04-29T04:54:30.785Z,82.56
2023-04-29T04:57:07.869Z,82.52
2023-04-29T04:59:36.155Z,82.44
2023-04-29T05:02:04.646Z,83.35
2023-04-29T05:04:33.115Z,83.22
2023-04-29T05:07:02.962Z,83.18
2023-04-29T05:09:38.422Z,83.54
2023-04-29T05:12:07.296Z,83.68
2023-04-29T05:14:35.867Z,83.47
2023-04-29T05:17:04.254Z,84.03
2023-04-29T05:19:33.154Z,84.60
2023-04-29T05:22:03.486Z,84.73
2023-04-29T05:24:32.840Z,85.28
2023-04-29T05:27:01.603Z,85.46
2023-04-29T05:29:29.974Z,85.47
2023-04-29T05:32:01.353Z,85.49
2023-04-29T05:34:30.336Z,85.66
2023-04-29T05:36:58.764Z,85.95
2023-04-29T05:39:28.812Z,85.71
2023-04-29T05:42:07.019Z,85.84
2023-04-29T05:44:42.682Z,86.17
2023-04-29T05:47:11.078Z,86.17
2023-04-29T05:49:40.853Z,86.01
2023-04-29T05:52:09.177Z,86.66
2023-04-29T05:54:44.760Z,86.25
2023-04-29T05:57:13.783Z,86.37
2023-04-29T05:59:42.494Z,86.38
2023-04-29T06:02:11.818Z,86.54
2023-04-29T06:04:42.706Z,86.54
2023-04-29T06:07:22.542Z,85.74
2023-04-29T06:09:57.822Z,85.83
2023-04-29T06:12:27.463Z,85.80
2023-04-29T06:14:56.214Z,85.88
2023-04-29T06:17:24.661Z,86.14
2023-04-29T06:19:55.860Z,86.03
2023-04-29T06:22:25.622Z,85.39
2023-04-29T06:24:57.296Z,85.47
2023-04-29T06:27:39.529Z,85.54
2023-04-29T06:30:09.984Z,84.87
2023-04-29T06:32:39.906Z,84.45
2023-04-29T06:35:09.658Z,83.81
2023-04-29T06:38:10.374Z,83.49
2023-04-29T06:41:15.827Z,83.23
2023-04-29T06:44:00.900Z,81.45
2023-04-29T06:46:49.503Z,80.93
2023-04-29T06:49:21.608Z,80.26
2023-04-29T06:51:50.729Z,80.26
2023-04-29T06:54:21.521Z,78.91
2023-04-29T06:56:53.313Z,78.83
2023-04-29T06:59:21.632Z,77.39
2023-04-29T07:01:50.089Z,77.90
2023-04-29T07:04:21.581Z,77.35
2023-04-29T07:06:51.118Z,76.27
2023-04-29T07:09:20.628Z,76.05
2023-04-29T07:11:49.422Z,73.91
2023-04-29T07:14:23.902Z,72.62
2023-04-29T07:16:55.592Z,72.45
2023-04-29T07:19:25.085Z,72.25
2023-04-29T07:21:53.558Z,71.33
2023-04-29T07:24:23.363Z,71.87
2023-04-29T07:26:51.714Z,70.10
2023-04-29T07:29:23.722Z,69.87
2023-04-29T07:31:53.767Z,70.41
2023-04-29T07:34:28.327Z,72.11
2023-04-29T07:36:58.349Z,70.74
2023-04-29T07:39:26.829Z,69.93
2023-04-29T07:41:57.578Z,70.65
2023-04-29T07:44:27.258Z,71.98
2023-04-29T07:46:55.622Z,71.18
2023-04-29T07:49:26.094Z,69.50
2023-04-29T07:51:54.457Z,69.39
2023-04-29T07:54:23.700Z,69.19
2023-04-29T07:56:52.617Z,68.73
2023-04-29T07:59:22.050Z,68.09
2023-04-29T08:01:52.378Z,67.60
2023-04-29T08:04:21.624Z,66.94
2023-04-29T08:06:57.193Z,66.07
2023-04-29T08:09:25.777Z,65.57
2023-04-29T08:11:54.084Z,66.19
2023-04-29T08:14:22.505Z,66.43
2023-04-29T08:16:52.241Z,66.65
2023-04-29T08:19:21.479Z,67.15
2023-04-29T08:21:52.060Z,66.77
2023-04-29T08:24:22.430Z,67.14
2023-04-29T08:26:51.167Z,67.86
2023-04-29T08:29:19.590Z,67.64
2023-04-29T08:31:48.027Z,65.85
2023-04-29T08:34:17.908Z,65.56
2023-04-29T08:36:47.432Z,66.15
2023-04-29T08:39:15.900Z,67.06
2023-04-29T08:41:49.240Z,67.06
2023-04-29T08:44:18.086Z,66.83
2023-04-29T08:46:47.725Z,65.55
2023-04-29T08:49:17.523Z,64.94
2023-04-29T08:51:46.406Z,64.24
2023-04-29T08:54:14.744Z,63.07
2023-04-29T08:56:47.992Z,62.02
2023-04-29T08:59:20.508Z,61.80
2023-04-29T09:01:53.357Z,61.05
2023-04-29T09:04:36.005Z,60.55
2023-04-29T09:07:05.482Z,60.73
2023-04-29T09:09:34.670Z,59.46
2023-04-29T09:12:03.041Z,59.93
2023-04-29T09:14:34.272Z,57.93
2023-04-29T09:17:02.787Z,59.00
2023-04-29T09:19:34.776Z,59.63
2023-04-29T09:22:04.589Z,58.15
2023-04-29T09:24:33.523Z,57.30
2023-04-29T09:27:03.186Z,58.07
2023-04-29T09:29:32.989Z,56.74
2023-04-29T09:32:01.671Z,57.61
2023-04-29T09:34:38.523Z,56.73
2023-04-29T09:37:24.935Z,57.77
2023-04-29T09:39:53.403Z,58.15
2023-04-29T09:42:21.996Z,58.23
2023-04-29T09:44:50.480Z,57.51
2023-04-29T09:47:18.904Z,57.72
2023-04-29T09:49:50.060Z,59.19
2023-04-29T09:52:18.512Z,58.22
2023-04-29T09:54:46.830Z,58.13
2023-04-29T09:57:16.060Z,56.81
2023-04-29T09:59:44.478Z,56.58
2023-04-29T10:02:17.717Z,55.89
2023-04-29T10:04:50.251Z,55.93
2023-04-29T10:07:20.303Z,55.41
2023-04-29T10:09:49.605Z,55.04
2023-04-29T10:12:19.247Z,55.53
2023-04-29T10:14:56.525Z,53.59
2023-04-29T10:17:35.859Z,53.63
2023-04-29T10:20:08.576Z,53.56
2023-04-29T10:22:47.821Z,54.25
2023-04-29T10:25:18.463Z,53.01
2023-04-29T10:27:49.000Z,53.58
2023-04-29T10:30:19.362Z,52.23
2023-04-29T10:32:51.627Z,52.83
2023-04-29T10:35:25.393Z,52.74
2023-04-29T10:37:54.828Z,52.65
2023-04-29T10:40:30.644Z,51.49
2023-04-29T10:42:59.615Z,52.55
2023-04-29T10:45:31.823Z,52.34
2023-04-29T10:48:18.839Z,51.97
2023-04-29T10:51:06.779Z,52.45
2023-04-29T10:53:35.644Z,50.61
2023-04-29T10:56:11.167Z,51.66
2023-04-29T10:58:43.975Z,51.04
2023-04-29T11:01:14.356Z,51.34
2023-04-29T11:03:59.303Z,51.34
2023-04-29T11:06:43.058Z,49.87
2023-04-29T11:09:15.302Z,50.44
2023-04-29T11:11:49.938Z,51.21
2023-04-29T11:14:25.104Z,51.49
2023-04-29T11:16:55.705Z,52.00
2023-04-29T11:19:26.667Z,51.24
2023-04-29T11:22:13.783Z,50.51
2023-04-29T11:24:57.978Z,49.88
2023-04-29T11:27:31.061Z,50.21
2023-04-29T11:30:00.744Z,49.11
2023-04-29T11:32:30.590Z,49.59
2023-04-29T11:35:10.451Z,50.35
2023-04-29T11:37:41.979Z,52.40
2023-04-29T11:40:13.092Z,52.78
2023-04-29T11:42:45.370Z,53.42
2023-04-29T11:45:14.704Z,53.65
2023-04-29T11:47:46.447Z,54.65
2023-04-29T11:50:17.746Z,55.63
2023-04-29T11:52:48.831Z,56.26
2023-04-29T11:55:17.423Z,56.84
2023-04-29T11:57:45.784Z,56.32
2023-04-29T12:00:16.784Z,56.89
2023-04-29T12:02:47.666Z,57.15
2023-04-29T12:05:17.514Z,56.57
2023-04-29T12:07:47.537Z,57.51
2023-04-29T12:10:15.832Z,59.05
2023-04-29T12:12:45.921Z,59.47
2023-04-29T12:15:14.813Z,60.36
2023-04-29T12:17:46.334Z,60.41
2023-04-29T12:20:15.337Z,59.46
2023-04-29T12:22:44.912Z,58.97
2023-04-29T12:25:14.668Z,57.64
2023-04-29T12:27:43.470Z,58.76
2023-04-29T12:30:13.240Z,57.46
2023-04-29T12:32:42.232Z,57.88
2023-04-29T12:35:17.764Z,56.97
2023-04-29T12:37:50.827Z,56.51
2023-04-29T12:40:21.442Z,55.24
2023-04-29T12:42:49.929Z,54.96
2023-04-29T12:45:30.637Z,54.53
2023-04-29T12:47:59.428Z,55.49
2023-04-29T12:50:34.361Z,55.21
2023-04-29T12:53:04.795Z,54.81
2023-04-29T12:55:35.797Z,54.50
2023-04-29T12:58:04.629Z,55.12
2023-04-29T13:00:35.017Z,54.33
2023-04-29T13:03:04.401Z,53.34
2023-04-29T13:05:32.873Z,53.32
2023-04-29T13:08:01.574Z,53.63
2023-04-29T13:10:30.020Z,54.47
2023-04-29T13:13:00.000Z,54.54
2023-04-29T13:15:28.480Z,53.71
2023-04-29T13:17:58.692Z,55.26
2023-04-29T13:20:27.512Z,54.18
2023-04-29T13:22:56.186Z,53.95
2023-04-29T13:25:24.496Z,53.78
2023-04-29T13:27:52.931Z,53.10
2023-04-29T13:30:22.552Z,53.33
2023-04-29T13:32:55.923Z,52.95
2023-04-29T13:35:28.167Z,53.70
2023-04-29T13:37:57.070Z,54.70
2023-04-29T13:40:28.105Z,54.46
2023-04-29T13:43:05.616Z,53.94
2023-04-29T13:45:39.771Z,53.94
2023-04-29T13:48:21.141Z,53.55
2023-04-29T13:54:05.684Z,52.57
2023-04-29T13:59:36.346Z,50.86
2023-04-29T14:04:14.216Z,52.50
2023-04-29T14:06:44.694Z,52.89
2023-04-29T14:09:13.029Z,52.77
2023-04-29T14:11:41.368Z,53.47
2023-04-29T14:14:09.699Z,53.72
2023-04-29T14:16:37.964Z,53.89
2023-04-29T14:19:08.699Z,53.71
2023-04-29T14:21:37.062Z,54.98
2023-04-29T14:24:05.435Z,53.78
2023-04-29T14:26:33.923Z,54.41
2023-04-29T14:29:02.745Z,55.38
2023-04-29T14:31:35.324Z,54.36
2023-04-29T14:34:03.691Z,53.74
2023-04-29T14:36:33.847Z,52.37
2023-04-29T14:39:03.894Z,52.95
2023-04-29T14:41:32.233Z,52.61
2023-04-29T14:44:01.044Z,52.78
2023-04-29T14:46:29.527Z,52.54
2023-04-29T14:48:57.869Z,52.28
2023-04-29T14:51:27.448Z,51.01
2023-04-29T14:53:57.081Z,51.42
2023-04-29T14:56:26.116Z,51.94
2023-04-29T14:58:54.568Z,52.60
2023-04-29T15:01:22.893Z,54.06
2023-04-29T15:03:51.305Z,54.18
2023-04-29T15:06:19.905Z,53.09
2023-04-29T15:08:48.375Z,54.07
2023-04-29T15:11:18.096Z,53.66
2023-04-29T15:13:46.491Z,53.64
2023-04-29T15:16:14.815Z,53.35
2023-04-29T15:18:45.619Z,53.57
2023-04-29T15:21:14.178Z,53.43
2023-04-29T15:23:42.495Z,52.65
2023-04-29T15:26:10.817Z,53.17
2023-04-29T15:28:40.594Z,52.53
2023-04-29T15:31:09.748Z,52.81
2023-04-29T15:33:38.166Z,52.83
2023-04-29T15:36:08.523Z,53.07
2023-04-29T15:38:36.935Z,54.08
2023-04-29T15:41:05.632Z,52.56
2023-04-29T15:43:34.368Z,52.11
2023-04-29T15:46:04.134Z,51.67
2023-04-29T15:48:32.487Z,52.82
2023-04-29T15:51:00.776Z,54.02
2023-04-29T15:53:29.071Z,53.02
2023-04-29T15:55:57.428Z,52.79
2023-04-29T15:58:25.904Z,52.51
2023-04-29T16:00:54.286Z,51.62
2023-04-29T16:03:24.020Z,51.70
2023-04-29T16:05:52.677Z,51.62
2023-04-29T16:08:21.020Z,51.80
2023-04-29T16:10:49.611Z,51.71
2023-04-29T16:13:17.937Z,51.53
2023-04-29T16:15:46.293Z,50.26
2023-04-29T16:18:15.015Z,51.48
2023-04-29T16:20:44.980Z,51.22
2023-04-29T16:23:14.346Z,50.93
2023-04-29T16:25:43.053Z,50.68
2023-04-29T16:28:11.330Z,50.17
2023-04-29T16:30:39.621Z,49.96
2023-04-29T16:33:07.860Z,49.34
2023-04-29T16:35:37.536Z,49.07
2023-04-29T16:38:07.253Z,48.10
2023-04-29T16:40:35.709Z,48.91
2023-04-29T16:43:04.004Z,49.35
2023-04-29T16:45:32.605Z,50.41
2023-04-29T16:48:02.026Z,50.11
2023-04-29T16:50:30.396Z,50.41
2023-04-29T16:52:58.733Z,49.97
2023-04-29T16:55:28.424Z,50.19
2023-04-29T16:57:56.815Z,50.08
2023-04-29T17:00:25.340Z,50.82
2023-04-29T17:02:54.194Z,50.99
2023-04-29T17:05:22.640Z,51.70
2023-04-29T17:07:50.932Z,52.09
2023-04-29T17:10:19.482Z,52.72
2023-04-29T17:12:49.173Z,52.25
2023-04-29T17:15:17.746Z,51.59
2023-04-29T17:17:46.723Z,51.87
2023-04-29T17:20:15.827Z,51.99
2023-04-29T17:22:44.861Z,52.16
2023-04-29T17:25:13.778Z,52.56
2023-04-29T17:27:42.224Z,52.97
2023-04-29T17:30:14.152Z,52.59
2023-04-29T17:32:44.365Z,51.97
2023-04-29T17:35:12.852Z,52.35
2023-04-29T17:37:41.236Z,52.41
2023-04-29T17:40:10.933Z,52.35
2023-04-29T17:42:39.269Z,52.00
2023-04-29T17:45:09.434Z,52.05
2023-04-29T17:47:39.212Z,52.38
2023-04-29T17:50:09.034Z,52.52
2023-04-29T17:52:37.445Z,52.45
2023-04-29T17:55:07.055Z,52.48
2023-04-29T17:57:36.470Z,52.72
2023-04-29T18:00:06.938Z,52.76
2023-04-29T18:02:35.521Z,52.48
2023-04-29T18:05:06.153Z,51.84
2023-04-29T18:07:34.322Z,50.67
2023-04-29T18:10:02.726Z,50.22
2023-04-29T18:12:31.090Z,50.18
2023-04-29T18:14:59.368Z,49.91
2023-04-29T18:17:27.839Z,49.84
2023-04-29T18:19:56.320Z,50.15
2023-04-29T18:22:26.444Z,50.11
2023-04-29T18:24:54.811Z,49.79
2023-04-29T18:27:23.094Z,47.83
2023-04-29T18:29:51.791Z,47.83
2023-04-29T18:32:20.216Z,48.34
2023-04-29T18:34:48.729Z,48.09
2023-04-29T18:37:17.015Z,47.81
2023-04-29T18:39:46.796Z,47.57
2023-04-29T18:42:15.238Z,47.43
2023-04-29T18:44:43.688Z,46.59
2023-04-29T18:47:11.947Z,46.99
2023-04-29T18:49:40.974Z,46.94
2023-04-29T18:52:09.513Z,46.75
2023-04-29T18:54:37.842Z,46.52
2023-04-29T18:57:07.521Z,46.21
2023-04-29T18:59:38.076Z,45.97
2023-04-29T19:02:06.866Z,45.91
2023-04-29T19:04:35.690Z,45.95
2023-04-29T19:07:06.159Z,45.78
2023-04-29T19:09:34.596Z,45.53
2023-04-29T19:12:04.557Z,45.65
2023-04-29T19:14:34.427Z,45.96
2023-04-29T19:17:02.759Z,45.86
2023-04-29T19:19:31.257Z,46.15
2023-04-29T19:21:59.589Z,45.45
2023-04-29T19:24:27.885Z,46.08
2023-04-29T19:26:56.255Z,46.11
2023-04-29T19:29:24.611Z,46.54
2023-04-29T19:31:54.355Z,46.88
2023-04-29T19:34:22.689Z,47.32
2023-04-29T19:36:51.063Z,46.49
2023-04-29T19:39:19.619Z,46.70
2023-04-29T19:41:47.993Z,47.10
2023-04-29T19:44:16.408Z,47.43
2023-04-29T19:46:44.714Z,47.66
2023-04-29T19:49:14.861Z,47.49
2023-04-29T19:51:43.308Z,47.82
2023-04-29T19:54:11.841Z,48.02
2023-04-29T19:56:40.219Z,47.79
2023-04-29T19:59:08.672Z,48.30
2023-04-29T20:01:37.000Z,48.50
2023-04-29T20:04:05.763Z,49.41
2023-04-29T20:06:37.448Z,49.21
2023-04-29T20:09:06.103Z,49.11
2023-04-29T20:11:34.399Z,49.71
2023-04-29T20:14:02.804Z,49.86
2023-04-29T20:16:32.196Z,50.26
2023-04-29T20:19:00.509Z,50.74
2023-04-29T20:21:28.862Z,50.93
2023-04-29T20:23:58.493Z,51.64
2023-04-29T20:26:27.578Z,51.99
2023-04-29T20:28:55.923Z,53.42
2023-04-29T20:31:24.328Z,53.07
2023-04-29T20:33:53.678Z,53.63
2023-04-29T20:36:21.983Z,54.25
2023-04-29T20:38:50.342Z,54.16
2023-04-29T20:41:20.693Z,54.67
2023-04-29T20:43:49.078Z,54.74
2023-04-29T20:46:17.930Z,55.51
2023-04-29T20:48:46.261Z,55.32
2023-04-29T20:51:14.638Z,55.99
2023-04-29T20:53:43.052Z,55.97
2023-04-29T20:56:11.476Z,56.04
2023-04-29T20:58:41.221Z,56.38
2023-04-29T21:01:09.746Z,56.80
2023-04-29T21:03:38.057Z,57.50
2023-04-29T21:06:07.582Z,57.10
2023-04-29T21:08:35.901Z,57.53
2023-04-29T21:11:05.182Z,57.80
2023-04-29T21:13:33.546Z,58.19
2023-04-29T21:16:03.283Z,58.75
2023-04-29T21:18:31.713Z,58.87
2023-04-29T21:21:00.019Z,59.00
2023-04-29T21:23:28.324Z,59.45
2023-04-29T21:25:56.629Z,59.79
2023-04-29T21:28:25.060Z,59.90
2023-04-29T21:30:53.360Z,60.22
2023-04-29T21:33:23.097Z,60.14
2023-04-29T21:35:52.390Z,60.89
2023-04-29T21:38:20.675Z,61.46
2023-04-29T21:40:49.593Z,63.94
2023-04-29T21:43:19.061Z,65.42
2023-04-29T21:45:47.458Z,64.44
2023-04-29T21:48:18.065Z,64.19
2023-04-29T21:50:47.922Z,63.90
2023-04-29T21:53:16.713Z,63.54
2023-04-29T21:55:45.321Z,63.49
2023-04-29T21:58:13.607Z,63.42
2023-04-29T22:00:48.019Z,63.53
2023-04-29T22:03:16.537Z,63.42
2023-04-29T22:05:45.012Z,63.39
2023-04-29T22:08:14.643Z,63.70
2023-04-29T22:10:43.622Z,64.13
2023-04-29T22:13:12.795Z,63.96
2023-04-29T22:15:41.387Z,63.99
2023-04-29T22:18:09.780Z,64.50
2023-04-29T22:20:38.324Z,66.65
2023-04-29T22:23:06.646Z,66.61
2023-04-29T22:25:36.390Z,66.60
2023-04-29T22:28:05.112Z,66.21
2023-04-29T22:30:33.338Z,66.55
2023-04-29T22:33:01.790Z,66.39
2023-04-29T22:35:30.195Z,66.49
2023-04-29T22:37:58.590Z,66.56
2023-04-29T22:40:26.847Z,66.70
2023-04-29T22:42:56.506Z,66.45
2023-04-29T22:45:24.880Z,66.68
2023-04-29T22:47:53.311Z,66.83
2023-04-29T22:50:21.589Z,66.91
2023-04-29T22:52:49.887Z,67.99
2023-04-29T22:55:18.407Z,68.29
2023-04-29T22:57:46.697Z,68.68
2023-04-29T23:00:17.334Z,69.45
2023-04-29T23:02:45.794Z,70.01
2023-04-29T23:05:14.125Z,69.92
2023-04-29T23:07:42.419Z,69.84
2023-04-29T23:10:11.648Z,69.80
2023-04-29T23:12:40.033Z,69.83
2023-04-29T23:15:10.024Z,69.62
2023-04-29T23:17:39.956Z,69.60
2023-04-29T23:20:09.685Z,69.63
2023-04-29T23:22:37.949Z,69.59
2023-04-29T23:25:07.098Z,69.83
2023-04-29T23:27:35.387Z,69.57
2023-04-29T23:30:03.769Z,70.06
2023-04-29T23:32:32.152Z,70.39
2023-04-29T23:35:02.018Z,70.23
2023-04-29T23:37:30.467Z,70.34
2023-04-29T23:39:59.129Z,70.34
2023-04-29T23:42:27.764Z,70.40
2023-04-29T23:44:56.299Z,71.52
2023-04-29T23:47:24.775Z,71.42
2023-04-29T23:49:53.405Z,71.47
2023-04-29T23:52:23.240Z,71.52
2023-04-29T23:54:51.509Z,71.41
2023-04-29T23:57:20.209Z,71.34
2023-04-29T23:59:48.578Z,71.51
